createdAt,value
2019-05-26T00:01:58.885Z,75.90
2019-05-26T00:04:27.714Z,74.80
2019-05-26T00:06:57.090Z,74.30
2019-05-26T00:09:25.918Z,73.60
2019-05-26T00:11:54.824Z,71.80
2019-05-26T00:14:23.674Z,71.30
2019-05-26T00:16:52.445Z,73.80
2019-05-26T00:19:21.250Z,73.90
2019-05-26T00:21:50.124Z,74.80
2019-05-26T00:24:19.035Z,74.10
2019-05-26T00:26:47.893Z,74.10
2019-05-26T00:29:16.722Z,74.30
2019-05-26T00:31:45.612Z,74.10
2019-05-26T00:34:14.703Z,74.20
2019-05-26T00:36:43.865Z,74.00
2019-05-26T00:39:12.663Z,75.40
2019-05-26T00:41:41.767Z,76.10
2019-05-26T00:44:10.614Z,76.50
2019-05-26T00:46:39.666Z,77.60
2019-05-26T00:49:08.713Z,76.90
2019-05-26T00:51:37.807Z,76.90
2019-05-26T00:54:06.669Z,77.20
2019-05-26T00:56:35.596Z,78.70
2019-05-26T00:59:04.820Z,79.80
2019-05-26T01:01:34.087Z,79.40
2019-05-26T01:04:02.956Z,79.60
2019-05-26T01:06:31.995Z,80.60
2019-05-26T01:09:00.830Z,81.00
2019-05-26T01:11:29.971Z,82.00
2019-05-26T01:13:58.815Z,82.50
2019-05-26T01:16:27.643Z,82.50
2019-05-26T01:18:56.520Z,83.30
2019-05-26T01:21:25.550Z,83.90
2019-05-26T01:23:54.356Z,84.60
2019-05-26T01:26:23.232Z,84.30
2019-05-26T01:28:52.231Z,84.70
2019-05-26T01:31:21.026Z,84.20
2019-05-26T01:33:50.098Z,83.80
2019-05-26T01:36:19.190Z,83.60
2019-05-26T01:38:48.844Z,84.10
2019-05-26T01:41:17.647Z,83.50
2019-05-26T01:43:46.507Z,82.60
2019-05-26T01:46:15.286Z,82.70
2019-05-26T01:48:44.238Z,82.00
2019-05-26T01:51:13.414Z,82.10
2019-05-26T01:53:42.206Z,81.10
2019-05-26T01:56:11.105Z,79.00
2019-05-26T01:58:40.226Z,77.80
2019-05-26T02:01:09.079Z,76.90
2019-05-26T02:03:37.928Z,76.70
2019-05-26T02:06:06.735Z,76.30
2019-05-26T02:08:39.401Z,76.90
2019-05-26T02:11:06.172Z,76.40
2019-05-26T02:13:35.465Z,76.00
2019-05-26T02:16:04.879Z,76.50
2019-05-26T02:18:34.135Z,78.10
2019-05-26T02:21:03.244Z,79.30
2019-05-26T02:23:32.319Z,79.50
2019-05-26T02:26:01.199Z,79.30
2019-05-26T02:28:30.093Z,80.00
2019-05-26T02:30:58.945Z,80.10
2019-05-26T02:33:28.015Z,81.30
2019-05-26T02:35:56.831Z,81.30
2019-05-26T02:38:26.431Z,81.70
2019-05-26T02:40:55.544Z,83.20
2019-05-26T02:43:24.349Z,83.70
2019-05-26T02:45:53.371Z,84.50
2019-05-26T02:48:22.577Z,85.80
2019-05-26T02:50:51.352Z,87.80
2019-05-26T02:53:24.544Z,87.40
2019-05-26T02:55:50.944Z,88.00
2019-05-26T02:58:19.821Z,88.40
2019-05-26T03:00:49.004Z,87.80
2019-05-26T03:03:18.169Z,87.70
2019-05-26T03:05:47.216Z,88.40
2019-05-26T03:08:17.407Z,88.20
2019-05-26T03:10:48.157Z,89.90
2019-05-26T03:13:18.996Z,90.30
2019-05-26T03:15:48.343Z,91.00
2019-05-26T03:18:18.156Z,91.00
2019-05-26T03:20:47.071Z,91.30
2019-05-26T03:23:16.610Z,91.20
2019-05-26T03:25:45.598Z,91.40
2019-05-26T03:28:14.589Z,91.30
2019-05-26T03:30:43.704Z,91.70
2019-05-26T03:33:12.496Z,91.70
2019-05-26T03:35:41.590Z,91.90
2019-05-26T03:38:10.427Z,91.40
2019-05-26T03:40:39.202Z,90.50
2019-05-26T03:43:07.976Z,91.60
2019-05-26T03:46:16.984Z,90.90
2019-05-26T03:48:46.329Z,90.40
2019-05-26T03:51:15.343Z,89.60
2019-05-26T03:53:44.125Z,90.60
2019-05-26T03:56:13.205Z,90.90
2019-05-26T03:58:41.998Z,91.30
2019-05-26T04:01:11.032Z,91.20
2019-05-26T04:03:40.129Z,90.50
2019-05-26T04:06:08.910Z,90.10
2019-05-26T04:08:38.020Z,89.70
2019-05-26T04:11:07.288Z,89.90
2019-05-26T04:13:36.170Z,88.80
2019-05-26T04:16:05.549Z,87.60
2019-05-26T04:18:34.378Z,87.00
2019-05-26T04:21:03.221Z,86.00
2019-05-26T04:23:32.530Z,85.50
2019-05-26T04:26:01.401Z,86.20
2019-05-26T04:28:30.277Z,86.30
2019-05-26T04:30:59.755Z,85.90
2019-05-26T04:33:28.519Z,86.80
2019-05-26T04:35:57.766Z,87.30
2019-05-26T04:38:26.623Z,87.60
2019-05-26T04:40:55.455Z,88.50
2019-05-26T04:43:24.313Z,89.80
2019-05-26T04:45:53.405Z,88.30
2019-05-26T04:48:22.239Z,87.40
2019-05-26T04:50:51.235Z,88.40
2019-05-26T04:53:22.904Z,86.90
2019-05-26T04:55:51.845Z,85.50
2019-05-26T04:58:20.822Z,84.50
2019-05-26T05:00:49.781Z,83.90
2019-05-26T05:03:19.907Z,83.80
2019-05-26T05:05:48.760Z,82.60
2019-05-26T05:08:17.597Z,75.20
2019-05-26T05:10:46.759Z,74.20
2019-05-26T05:13:16.070Z,72.20
2019-05-26T05:15:44.955Z,66.00
2019-05-26T05:18:13.836Z,62.80
2019-05-26T05:20:42.669Z,60.90
2019-05-26T05:23:11.618Z,59.50
2019-05-26T05:25:40.416Z,64.10
2019-05-26T05:28:09.301Z,58.80
2019-05-26T05:30:38.232Z,61.50
2019-05-26T05:33:06.998Z,57.60
2019-05-26T05:35:36.014Z,57.30
2019-05-26T05:38:04.985Z,53.00
2019-05-26T05:40:34.020Z,53.20
2019-05-26T05:43:03.197Z,54.50
2019-05-26T05:45:32.301Z,50.40
2019-05-26T05:48:01.221Z,47.60
2019-05-26T05:50:30.631Z,51.80
2019-05-26T05:52:59.570Z,46.70
2019-05-26T05:55:28.656Z,46.40
2019-05-26T05:57:57.976Z,49.40
2019-05-26T06:00:26.969Z,44.20
2019-05-26T06:02:56.105Z,47.50
2019-05-26T06:05:24.997Z,37.90
2019-05-26T06:07:53.936Z,41.00
2019-05-26T06:10:23.593Z,32.70
2019-05-26T06:12:52.423Z,38.70
2019-05-26T06:15:21.372Z,30.80
2019-05-26T06:17:50.636Z,35.20
2019-05-26T06:20:19.879Z,33.00
2019-05-26T06:22:48.843Z,31.30
2019-05-26T06:25:17.764Z,28.00
2019-05-26T06:27:46.685Z,23.60
2019-05-26T06:30:16.340Z,20.80
2019-05-26T06:32:45.140Z,24.90
2019-05-26T06:35:14.365Z,25.90
2019-05-26T06:37:43.200Z,17.20
2019-05-26T06:40:13.759Z,14.90
2019-05-26T06:42:43.556Z,14.50
2019-05-26T06:45:12.368Z,16.40
2019-05-26T06:47:41.150Z,12.50
2019-05-26T06:50:10.336Z,10.80
2019-05-26T06:52:39.226Z,8.40
2019-05-26T06:55:08.395Z,4.00
2019-05-26T06:57:37.159Z,3.50
2019-05-26T07:00:06.251Z,1.00
2019-05-26T07:02:35.254Z,1.00
2019-05-26T07:05:04.566Z,1.00
2019-05-26T07:07:33.679Z,1.00
2019-05-26T07:10:02.521Z,1.00
2019-05-26T07:12:31.608Z,1.00
2019-05-26T07:15:00.465Z,1.00
2019-05-26T07:17:29.749Z,1.00
2019-05-26T07:19:58.797Z,1.00
2019-05-26T07:22:27.919Z,1.00
2019-05-26T07:24:56.918Z,1.00
2019-05-26T07:27:25.759Z,1.00
2019-05-26T07:29:54.524Z,1.00
2019-05-26T07:32:23.628Z,1.00
2019-05-26T07:34:52.521Z,1.00
2019-05-26T07:37:21.332Z,1.00
2019-05-26T07:39:50.068Z,1.00
2019-05-26T07:42:18.791Z,1.00
2019-05-26T07:44:47.527Z,1.00
2019-05-26T07:47:16.366Z,1.00
2019-05-26T07:49:45.516Z,1.00
2019-05-26T07:52:14.256Z,1.00
2019-05-26T07:54:43.246Z,1.00
2019-05-26T07:57:13.559Z,1.00
2019-05-26T07:59:42.452Z,1.00
2019-05-26T08:02:11.260Z,1.00
2019-05-26T08:04:44.126Z,1.00
2019-05-26T08:08:12.734Z,1.00
2019-05-26T08:10:37.540Z,1.00
2019-05-26T08:13:06.784Z,1.00
2019-05-26T08:15:35.746Z,1.00
2019-05-26T08:18:07.351Z,1.00
2019-05-26T08:20:36.805Z,1.00
2019-05-26T08:23:05.640Z,1.00
2019-05-26T08:25:36.199Z,1.00
2019-05-26T08:28:05.156Z,1.00
2019-05-26T08:30:34.624Z,1.00
2019-05-26T08:33:03.470Z,1.00
2019-05-26T08:35:32.292Z,1.00
2019-05-26T08:38:01.117Z,1.00
2019-05-26T08:40:30.276Z,1.00
2019-05-26T08:42:59.058Z,1.00
2019-05-26T08:45:28.075Z,1.00
2019-05-26T08:47:56.922Z,1.00
2019-05-26T08:50:25.952Z,1.00
2019-05-26T08:52:54.977Z,1.00
2019-05-26T08:55:23.751Z,1.00
2019-05-26T08:57:52.717Z,1.00
2019-05-26T09:00:21.648Z,1.00
2019-05-26T09:02:50.657Z,1.00
2019-05-26T09:05:19.679Z,1.00
2019-05-26T09:07:48.747Z,1.00
2019-05-26T09:10:17.881Z,1.00
2019-05-26T09:12:59.723Z,1.00
2019-05-26T09:15:17.588Z,1.00
2019-05-26T09:17:46.570Z,1.00
2019-05-26T09:20:17.011Z,1.00
2019-05-26T09:22:45.815Z,1.00
2019-05-26T09:25:14.672Z,1.00
2019-05-26T09:27:43.497Z,1.00
2019-05-26T09:30:13.081Z,1.00
2019-05-26T09:32:41.834Z,1.00
2019-05-26T09:35:11.280Z,1.00
2019-05-26T09:37:40.044Z,1.00
2019-05-26T09:40:09.333Z,1.00
2019-05-26T09:42:38.470Z,1.00
2019-05-26T09:45:07.790Z,1.00
2019-05-26T09:47:36.916Z,1.00
2019-05-26T09:50:07.038Z,1.00
2019-05-26T09:52:35.950Z,1.00
2019-05-26T09:55:12.979Z,1.00
2019-05-26T09:57:41.691Z,1.00
2019-05-26T10:00:15.886Z,1.00
2019-05-26T10:02:42.865Z,1.00
2019-05-26T10:05:12.145Z,1.00
2019-05-26T10:07:41.178Z,1.00
2019-05-26T10:10:10.364Z,1.00
2019-05-26T10:12:39.163Z,1.00
2019-05-26T10:15:08.833Z,1.00
2019-05-26T10:17:37.792Z,1.00
2019-05-26T10:20:07.437Z,1.00
2019-05-26T10:22:36.619Z,1.00
2019-05-26T10:25:05.931Z,1.00
2019-05-26T10:27:34.722Z,1.00
2019-05-26T10:30:03.659Z,1.00
2019-05-26T10:32:32.388Z,1.00
2019-05-26T10:35:01.310Z,1.00
2019-05-26T10:37:30.192Z,1.00
2019-05-26T10:39:59.261Z,1.00
2019-05-26T10:42:28.039Z,1.00
2019-05-26T10:44:56.826Z,1.00
2019-05-26T10:47:25.898Z,1.00
2019-05-26T10:49:54.696Z,1.00
2019-05-26T10:52:23.428Z,1.00
2019-05-26T10:54:52.613Z,1.00
2019-05-26T10:57:21.664Z,1.00
2019-05-26T10:59:50.713Z,1.00
2019-05-26T11:02:19.529Z,1.00
2019-05-26T11:04:48.494Z,1.00
2019-05-26T11:07:17.355Z,1.00
2019-05-26T11:09:46.384Z,1.00
2019-05-26T11:12:15.816Z,1.00
2019-05-26T11:14:44.603Z,1.00
2019-05-26T11:17:13.500Z,1.00
2019-05-26T11:19:42.509Z,1.00
2019-05-26T11:22:11.685Z,1.00
2019-05-26T11:24:40.424Z,1.00
2019-05-26T11:27:12.552Z,1.00
2019-05-26T11:29:39.744Z,1.00
2019-05-26T11:32:08.674Z,1.00
2019-05-26T11:34:37.781Z,1.00
2019-05-26T11:37:06.953Z,1.00
2019-05-26T11:39:35.813Z,1.00
2019-05-26T11:42:12.780Z,1.00
2019-05-26T11:44:38.622Z,1.00
2019-05-26T11:47:07.486Z,1.00
2019-05-26T11:49:36.255Z,1.00
2019-05-26T11:52:05.113Z,1.00
2019-05-26T11:54:34.775Z,1.00
2019-05-26T11:57:04.114Z,1.00
2019-05-26T11:59:33.403Z,1.00
2019-05-26T12:02:02.274Z,1.00
2019-05-26T12:04:31.333Z,1.00
2019-05-26T12:07:04.103Z,1.00
2019-05-26T12:09:31.020Z,1.00
2019-05-26T12:12:01.115Z,1.00
2019-05-26T12:14:34.690Z,1.00
2019-05-26T12:17:00.389Z,1.00
2019-05-26T12:19:29.159Z,1.00
2019-05-26T12:21:58.086Z,1.00
2019-05-26T12:24:26.882Z,1.00
2019-05-26T12:26:55.600Z,1.00
2019-05-26T12:29:24.631Z,1.00
2019-05-26T12:31:53.359Z,1.00
2019-05-26T12:34:25.443Z,1.00
2019-05-26T12:36:55.012Z,1.00
2019-05-26T12:39:23.829Z,1.00
2019-05-26T12:41:52.889Z,1.00
2019-05-26T12:44:21.731Z,1.00
2019-05-26T12:46:50.447Z,1.00
2019-05-26T12:49:23.249Z,1.00
2019-05-26T12:51:51.967Z,1.00
2019-05-26T12:54:20.767Z,1.00
2019-05-26T12:56:49.540Z,1.00
2019-05-26T12:59:18.546Z,1.00
2019-05-26T13:01:48.764Z,1.00
2019-05-26T13:04:17.931Z,1.00
2019-05-26T13:06:46.726Z,1.00
2019-05-26T13:09:15.708Z,1.00
2019-05-26T13:11:44.544Z,1.00
2019-05-26T13:14:13.370Z,1.00
2019-05-26T13:16:42.250Z,1.00
2019-05-26T13:19:10.985Z,1.00
2019-05-26T13:21:39.902Z,1.00
2019-05-26T13:24:08.682Z,1.00
2019-05-26T13:26:37.631Z,1.00
2019-05-26T13:29:06.818Z,1.00
2019-05-26T13:31:35.530Z,1.00
2019-05-26T13:34:04.412Z,1.00
2019-05-26T13:36:33.144Z,1.00
2019-05-26T13:39:02.233Z,1.00
2019-05-26T13:41:31.080Z,1.00
2019-05-26T13:44:00.128Z,1.00
2019-05-26T13:46:29.123Z,1.00
2019-05-26T13:48:57.878Z,1.00
2019-05-26T13:51:26.720Z,1.00
2019-05-26T13:53:55.733Z,1.00
2019-05-26T13:56:24.559Z,1.00
2019-05-26T13:58:53.315Z,1.00
2019-05-26T14:01:22.073Z,1.00
2019-05-26T14:03:50.804Z,1.00
2019-05-26T14:06:19.547Z,1.00
2019-05-26T14:08:48.334Z,1.00
2019-05-26T14:11:17.344Z,1.00
2019-05-26T14:13:46.051Z,1.00
2019-05-26T14:16:15.915Z,1.00
2019-05-26T14:18:45.521Z,1.00
2019-05-26T14:21:14.588Z,1.00
2019-05-26T14:23:43.634Z,1.00
2019-05-26T14:26:12.358Z,1.00
2019-05-26T14:28:41.070Z,1.00
2019-05-26T14:31:09.799Z,1.00
2019-05-26T14:33:38.536Z,1.00
2019-05-26T14:36:07.495Z,1.00
2019-05-26T14:38:43.152Z,1.00
2019-05-26T14:41:07.164Z,1.00
2019-05-26T14:43:35.957Z,1.00
2019-05-26T14:46:04.761Z,1.00
2019-05-26T14:48:33.592Z,1.00
2019-05-26T14:51:02.339Z,1.00
2019-05-26T14:53:31.138Z,1.00
2019-05-26T14:55:59.865Z,1.00
2019-05-26T14:58:28.559Z,1.00
2019-05-26T15:00:57.538Z,1.00
2019-05-26T15:03:26.598Z,1.00
2019-05-26T15:06:05.484Z,1.00
2019-05-26T15:08:28.057Z,1.00
2019-05-26T15:10:57.189Z,1.00
2019-05-26T15:13:25.910Z,1.00
2019-05-26T15:16:08.907Z,1.00
2019-05-26T15:18:25.373Z,1.00
2019-05-26T15:20:56.114Z,1.00
2019-05-26T15:23:24.675Z,1.00
2019-05-26T15:25:53.453Z,1.00
2019-05-26T15:28:22.237Z,1.00
2019-05-26T15:30:51.288Z,1.00
2019-05-26T15:33:20.108Z,1.00
2019-05-26T15:35:48.910Z,1.00
2019-05-26T15:38:17.723Z,1.00
2019-05-26T15:40:46.532Z,1.00
2019-05-26T15:43:15.284Z,1.00
2019-05-26T15:45:44.045Z,1.00
2019-05-26T15:48:12.896Z,1.00
2019-05-26T15:50:41.667Z,1.00
2019-05-26T15:53:10.488Z,1.00
2019-05-26T15:55:40.321Z,1.00
2019-05-26T15:58:09.207Z,1.00
2019-05-26T16:00:38.179Z,1.00
2019-05-26T16:03:07.023Z,1.00
2019-05-26T16:05:35.752Z,1.00
2019-05-26T16:08:04.661Z,1.00
2019-05-26T16:10:33.440Z,1.00
2019-05-26T16:13:02.486Z,1.00
2019-05-26T16:15:31.995Z,1.00
2019-05-26T16:18:00.797Z,1.00
2019-05-26T16:20:29.541Z,1.00
2019-05-26T16:22:58.370Z,1.00
2019-05-26T16:25:27.271Z,1.00
2019-05-26T16:27:55.963Z,1.00
2019-05-26T16:30:24.843Z,1.00
2019-05-26T16:32:53.628Z,1.00
2019-05-26T16:35:22.865Z,1.00
2019-05-26T16:37:51.757Z,1.00
2019-05-26T16:40:20.643Z,1.00
2019-05-26T16:42:49.422Z,1.00
2019-05-26T16:45:18.501Z,1.00
2019-05-26T16:47:47.264Z,1.00
2019-05-26T16:50:16.041Z,1.00
2019-05-26T16:52:44.824Z,1.00
2019-05-26T16:55:13.745Z,1.00
2019-05-26T16:57:42.459Z,1.00
2019-05-26T17:00:11.664Z,1.00
2019-05-26T17:02:40.688Z,1.00
2019-05-26T17:05:09.526Z,1.00
2019-05-26T17:07:38.536Z,1.00
2019-05-26T17:10:07.587Z,1.00
2019-05-26T17:12:36.416Z,1.00
2019-05-26T17:15:05.475Z,1.00
2019-05-26T17:17:34.212Z,1.00
2019-05-26T17:20:03.016Z,1.00
2019-05-26T17:22:31.821Z,1.00
2019-05-26T17:25:00.579Z,1.00
2019-05-26T17:27:29.287Z,1.00
2019-05-26T17:29:58.352Z,1.00
2019-05-26T17:32:27.355Z,1.00
2019-05-26T17:34:56.402Z,1.00
2019-05-26T17:37:25.144Z,1.00
2019-05-26T17:39:53.843Z,1.00
2019-05-26T17:42:22.550Z,1.00
2019-05-26T17:44:51.358Z,1.00
2019-05-26T17:47:29.845Z,1.00
2019-05-26T17:49:51.083Z,1.00
2019-05-26T17:52:19.817Z,1.00
2019-05-26T17:54:48.920Z,1.00
2019-05-26T17:57:17.881Z,1.00
2019-05-26T17:59:46.588Z,1.40
2019-05-26T18:02:15.300Z,1.00
2019-05-26T18:04:44.126Z,1.00
2019-05-26T18:07:13.424Z,2.00
2019-05-26T18:09:44.606Z,1.20
2019-05-26T18:12:12.901Z,1.00
2019-05-26T18:14:44.800Z,1.60
2019-05-26T18:17:13.796Z,2.60
2019-05-26T18:19:42.503Z,2.00
2019-05-26T18:22:11.502Z,4.30
2019-05-26T18:24:52.375Z,4.70
2019-05-26T18:27:10.921Z,5.00
2019-05-26T18:29:39.676Z,5.20
2019-05-26T18:32:08.549Z,5.70
2019-05-26T18:34:37.407Z,6.70
2019-05-26T18:37:06.281Z,6.70
2019-05-26T18:39:35.133Z,6.70
2019-05-26T18:42:03.951Z,6.10
2019-05-26T18:44:32.756Z,7.40
2019-05-26T18:47:01.780Z,8.60
2019-05-26T18:49:31.314Z,9.60
2019-05-26T18:52:00.327Z,10.90
2019-05-26T18:54:29.556Z,10.80
2019-05-26T18:56:58.606Z,11.30
2019-05-26T18:59:27.392Z,11.20
2019-05-26T19:01:56.199Z,12.50
2019-05-26T19:04:24.928Z,13.00
2019-05-26T19:06:53.737Z,12.40
2019-05-26T19:09:22.771Z,13.70
2019-05-26T19:11:51.500Z,15.50
2019-05-26T19:14:20.260Z,14.30
2019-05-26T19:16:49.104Z,16.90
2019-05-26T19:19:17.923Z,16.50
2019-05-26T19:21:46.884Z,18.00
2019-05-26T19:24:15.721Z,17.10
2019-05-26T19:26:44.528Z,18.60
2019-05-26T19:29:13.388Z,19.50
2019-05-26T19:31:42.217Z,21.00
2019-05-26T19:34:11.245Z,21.50
2019-05-26T19:36:40.604Z,22.90
2019-05-26T19:39:10.417Z,23.60
2019-05-26T19:41:39.593Z,25.00
2019-05-26T19:44:09.646Z,26.00
2019-05-26T19:46:38.485Z,27.30
2019-05-26T19:49:07.392Z,27.30
2019-05-26T19:51:36.515Z,25.10
2019-05-26T19:54:05.360Z,27.80
2019-05-26T19:56:34.304Z,30.20
2019-05-26T19:59:03.359Z,29.30
2019-05-26T20:01:32.158Z,32.60
2019-05-26T20:04:01.010Z,32.80
2019-05-26T20:06:29.857Z,33.40
2019-05-26T20:08:58.676Z,33.40
2019-05-26T20:11:27.727Z,32.30
2019-05-26T20:13:56.524Z,32.70
2019-05-26T20:16:25.352Z,33.00
2019-05-26T20:18:54.148Z,35.10
2019-05-26T20:21:22.904Z,36.80
2019-05-26T20:23:52.020Z,38.50
2019-05-26T20:26:20.836Z,37.90
2019-05-26T20:28:49.875Z,39.80
2019-05-26T20:31:18.863Z,39.50
2019-05-26T20:33:47.605Z,42.20
2019-05-26T20:36:16.650Z,43.40
2019-05-26T20:38:45.504Z,41.10
2019-05-26T20:41:14.553Z,40.70
2019-05-26T20:43:43.396Z,42.40
2019-05-26T20:46:12.276Z,44.10
2019-05-26T20:48:41.261Z,45.00
2019-05-26T20:51:10.093Z,46.90
2019-05-26T20:53:40.580Z,48.10
2019-05-26T20:56:09.860Z,48.80
2019-05-26T20:58:38.838Z,49.70
2019-05-26T21:01:07.638Z,51.80
2019-05-26T21:03:36.864Z,53.10
2019-05-26T21:06:05.669Z,54.20
2019-05-26T21:08:34.479Z,54.70
2019-05-26T21:11:03.267Z,54.80
2019-05-26T21:13:32.490Z,55.10
2019-05-26T21:16:01.744Z,53.10
2019-05-26T21:18:30.771Z,54.40
2019-05-26T21:20:59.732Z,55.50
2019-05-26T21:23:28.487Z,56.50
2019-05-26T21:25:57.391Z,58.90
2019-05-26T21:28:26.407Z,59.50
2019-05-26T21:30:55.143Z,60.30
2019-05-26T21:33:23.859Z,61.20
2019-05-26T21:35:52.636Z,61.50
2019-05-26T21:38:21.371Z,61.10
2019-05-26T21:40:50.399Z,60.80
2019-05-26T21:43:19.174Z,61.60
2019-05-26T21:45:48.212Z,60.40
2019-05-26T21:48:16.927Z,61.40
2019-05-26T21:50:45.700Z,63.00
2019-05-26T21:53:14.484Z,62.30
2019-05-26T21:55:43.497Z,62.80
2019-05-26T21:58:12.348Z,62.90
2019-05-26T22:00:44.136Z,63.80
2019-05-26T22:03:12.969Z,63.00
2019-05-26T22:05:41.809Z,62.50
2019-05-26T22:08:10.831Z,63.30
2019-05-26T22:10:39.559Z,64.30
2019-05-26T22:13:08.509Z,64.60
2019-05-26T22:15:37.528Z,65.10
2019-05-26T22:18:06.456Z,63.00
2019-05-26T22:20:35.352Z,64.10
2019-05-26T22:23:04.217Z,62.70
2019-05-26T22:25:33.285Z,64.80
2019-05-26T22:28:02.364Z,64.80
2019-05-26T22:30:31.148Z,63.70
2019-05-26T22:32:59.963Z,63.50
2019-05-26T22:35:28.720Z,62.90
2019-05-26T22:37:57.490Z,63.10
2019-05-26T22:40:26.606Z,64.60
2019-05-26T22:42:55.376Z,64.20
2019-05-26T22:45:24.227Z,59.90
2019-05-26T22:47:52.973Z,63.10
2019-05-26T22:50:21.856Z,63.60
2019-05-26T22:52:50.603Z,60.00
2019-05-26T22:55:19.463Z,53.90
2019-05-26T22:57:48.276Z,54.50
2019-05-26T23:00:17.903Z,48.00
2019-05-26T23:02:47.049Z,43.30
2019-05-26T23:05:15.900Z,49.00
2019-05-26T23:07:44.878Z,45.80
2019-05-26T23:10:14.058Z,42.20
2019-05-26T23:12:42.851Z,39.60
2019-05-26T23:15:12.240Z,41.40
2019-05-26T23:17:41.069Z,45.90
2019-05-26T23:20:10.604Z,46.80
2019-05-26T23:22:39.427Z,45.40
2019-05-26T23:25:08.460Z,46.80
2019-05-26T23:27:37.547Z,48.80
2019-05-26T23:30:07.190Z,43.70
2019-05-26T23:32:36.029Z,46.90
2019-05-26T23:35:05.107Z,47.50
2019-05-26T23:37:34.316Z,51.70
2019-05-26T23:40:03.151Z,53.00
2019-05-26T23:42:32.157Z,52.80
2019-05-26T23:45:00.874Z,52.50
2019-05-26T23:47:29.671Z,51.80
2019-05-26T23:49:58.506Z,55.10
2019-05-26T23:52:27.256Z,54.40
2019-05-26T23:54:56.028Z,55.30
2019-05-26T23:57:24.939Z,55.60
2019-05-26T23:59:53.771Z,54.60
